createdAt,value
2018-06-29T00:03:24.110Z,9.50
2018-06-29T00:08:18.589Z,9.97
2018-06-29T00:13:13.083Z,9.37
2018-06-29T00:18:07.513Z,9.93
2018-06-29T00:23:02.003Z,10.43
2018-06-29T00:27:56.505Z,11.40
2018-06-29T00:32:50.905Z,11.23
2018-06-29T00:37:45.384Z,12.33
2018-06-29T00:42:39.853Z,12.50
2018-06-29T00:47:34.504Z,12.27
2018-06-29T00:52:28.965Z,11.47
2018-06-29T00:57:23.459Z,12.30
2018-06-29T01:02:17.939Z,12.27
2018-06-29T01:07:12.397Z,12.20
2018-06-29T01:12:06.898Z,12.07
2018-06-29T01:17:01.445Z,11.53
2018-06-29T01:21:56.054Z,11.17
2018-06-29T01:26:51.173Z,11.30
2018-06-29T01:31:45.669Z,11.90
2018-06-29T01:36:40.140Z,11.47
2018-06-29T01:41:34.581Z,12.27
2018-06-29T01:46:29.080Z,11.43
2018-06-29T01:51:25.205Z,13.43
2018-06-29T01:56:19.723Z,13.47
2018-06-29T02:01:14.202Z,12.23
2018-06-29T02:06:08.705Z,12.77
2018-06-29T02:11:03.156Z,13.10
2018-06-29T02:15:57.467Z,13.80
2018-06-29T02:20:51.872Z,14.00
2018-06-29T02:25:46.319Z,13.87
2018-06-29T02:30:40.884Z,15.23
2018-06-29T02:35:35.297Z,14.17
2018-06-29T02:40:30.918Z,14.73
2018-06-29T02:45:25.398Z,14.77
2018-06-29T02:50:19.929Z,13.40
2018-06-29T02:55:14.538Z,13.30
2018-06-29T03:00:09.276Z,13.50
2018-06-29T03:05:03.853Z,13.40
2018-06-29T03:09:58.334Z,11.90
2018-06-29T03:14:52.837Z,12.93
2018-06-29T03:19:47.328Z,12.90
2018-06-29T03:24:41.779Z,12.67
2018-06-29T03:29:36.290Z,13.30
2018-06-29T03:34:30.761Z,12.87
2018-06-29T03:39:25.256Z,13.17
2018-06-29T03:44:19.698Z,11.83
2018-06-29T03:49:15.234Z,12.80
2018-06-29T03:54:09.823Z,13.17
2018-06-29T03:59:04.386Z,12.90
2018-06-29T04:03:58.920Z,13.90
2018-06-29T04:08:53.424Z,13.40
2018-06-29T04:13:47.895Z,13.40
2018-06-29T04:18:42.427Z,12.47
2018-06-29T04:23:36.989Z,12.77
2018-06-29T04:28:31.535Z,13.40
2018-06-29T04:33:26.046Z,14.27
2018-06-29T04:38:20.553Z,13.53
2018-06-29T04:43:15.050Z,13.07
2018-06-29T04:48:09.476Z,15.07
2018-06-29T04:53:03.997Z,13.83
2018-06-29T04:57:58.580Z,15.13
2018-06-29T05:02:53.141Z,14.13
2018-06-29T05:07:47.634Z,13.90
2018-06-29T05:12:42.111Z,13.83
2018-06-29T05:17:36.624Z,14.53
2018-06-29T05:22:31.134Z,14.17
2018-06-29T05:27:25.680Z,13.43
2018-06-29T05:32:20.233Z,13.67
2018-06-29T05:37:14.754Z,14.63
2018-06-29T05:42:09.316Z,14.43
2018-06-29T05:47:03.864Z,15.20
2018-06-29T05:51:58.304Z,14.57
2018-06-29T05:56:52.824Z,14.87
2018-06-29T06:01:47.433Z,14.83
2018-06-29T06:06:42.029Z,12.50
2018-06-29T06:11:36.593Z,13.40
2018-06-29T06:16:31.081Z,13.73
2018-06-29T06:21:25.725Z,12.23
2018-06-29T06:26:20.855Z,12.40
2018-06-29T06:31:15.450Z,11.60
2018-06-29T06:36:10.060Z,12.80
2018-06-29T06:41:04.656Z,12.13
2018-06-29T06:46:06.146Z,12.07
2018-06-29T06:51:04.745Z,12.30
2018-06-29T06:55:59.480Z,13.00
2018-06-29T07:00:54.623Z,12.00
2018-06-29T07:05:49.296Z,12.43
2018-06-29T07:10:44.145Z,12.50
2018-06-29T07:15:38.844Z,13.47
2018-06-29T07:20:51.416Z,13.53
2018-06-29T07:25:45.990Z,14.20
2018-06-29T07:30:45.233Z,14.90
2018-06-29T07:35:39.785Z,15.67
2018-06-29T07:40:34.554Z,15.27
2018-06-29T07:45:38.415Z,15.47
2018-06-29T07:50:33.190Z,15.67
2018-06-29T07:55:27.915Z,14.77
2018-06-29T08:00:22.461Z,14.57
2018-06-29T08:05:18.353Z,14.13
2018-06-29T08:10:13.164Z,14.07
2018-06-29T08:15:09.197Z,15.13
2018-06-29T08:20:03.807Z,15.90
2018-06-29T08:25:10.721Z,14.30
2018-06-29T08:30:07.779Z,16.70
2018-06-29T08:35:02.360Z,16.53
2018-06-29T08:40:02.435Z,15.00
2018-06-29T08:44:57.126Z,13.47
2018-06-29T08:49:52.325Z,14.53
2018-06-29T08:54:48.023Z,15.00
2018-06-29T08:59:43.328Z,13.43
2018-06-29T09:04:37.906Z,14.10
2018-06-29T09:09:32.566Z,14.47
2018-06-29T09:14:27.132Z,14.97
2018-06-29T09:19:21.646Z,14.20
2018-06-29T09:24:16.147Z,13.03
2018-06-29T09:29:10.705Z,13.40
2018-06-29T09:34:05.433Z,14.73
2018-06-29T09:38:59.989Z,15.43
2018-06-29T09:43:54.510Z,15.37
2018-06-29T09:48:49.009Z,14.10
2018-06-29T09:53:43.537Z,13.30
2018-06-29T09:58:38.188Z,14.87
2018-06-29T10:03:33.180Z,14.83
2018-06-29T10:08:29.764Z,12.07
2018-06-29T10:13:24.941Z,12.73
2018-06-29T10:18:19.687Z,13.60
2018-06-29T10:23:14.227Z,14.90
2018-06-29T10:28:08.938Z,12.70
2018-06-29T10:33:03.477Z,11.97
2018-06-29T10:37:58.833Z,12.03
2018-06-29T10:43:01.043Z,10.80
2018-06-29T10:47:55.516Z,11.70
2018-06-29T10:52:50.128Z,11.60
2018-06-29T10:57:44.623Z,10.60
2018-06-29T11:02:39.709Z,12.10
2018-06-29T11:07:34.323Z,12.67
2018-06-29T11:12:30.940Z,13.33
2018-06-29T11:17:25.536Z,12.33
2018-06-29T11:22:20.048Z,12.43
2018-06-29T11:27:14.577Z,12.20
2018-06-29T11:32:09.426Z,11.93
2018-06-29T11:37:07.301Z,12.20
2018-06-29T11:42:01.811Z,10.83
2018-06-29T11:47:03.498Z,10.65
2018-06-29T11:51:58.164Z,9.33
2018-06-29T11:56:52.700Z,10.00
2018-06-29T12:01:47.312Z,10.03
2018-06-29T12:06:41.821Z,9.83
2018-06-29T12:11:36.447Z,8.55
2018-06-29T12:16:30.948Z,8.93
2018-06-29T12:21:25.531Z,9.25
2018-06-29T12:26:20.034Z,8.70
2018-06-29T12:31:14.577Z,8.50
2018-06-29T12:36:15.337Z,8.05
2018-06-29T12:41:09.923Z,7.83
2018-06-29T12:46:04.506Z,7.85
2018-06-29T12:50:58.932Z,8.40
2018-06-29T12:55:53.489Z,8.65
2018-06-29T13:00:48.019Z,7.50
2018-06-29T13:05:43.676Z,8.43
2018-06-29T13:10:38.253Z,8.20
2018-06-29T13:15:33.614Z,8.85
2018-06-29T13:20:28.521Z,8.53
2018-06-29T13:25:23.077Z,9.08
2018-06-29T13:30:17.625Z,8.23
2018-06-29T13:35:12.091Z,8.83
2018-06-29T13:40:06.923Z,8.80
2018-06-29T13:45:01.441Z,8.18
2018-06-29T13:49:56.009Z,8.78
2018-06-29T13:54:50.527Z,8.38
2018-06-29T13:59:46.124Z,8.53
2018-06-29T14:04:40.630Z,8.63
2018-06-29T14:09:35.116Z,8.13
2018-06-29T14:14:29.686Z,8.90
2018-06-29T14:19:24.241Z,9.60
2018-06-29T14:24:18.696Z,8.20
2018-06-29T14:29:13.397Z,7.95
2018-06-29T14:34:07.956Z,7.45
2018-06-29T14:39:02.532Z,7.90
2018-06-29T14:43:57.137Z,7.35
2018-06-29T14:48:51.746Z,7.60
2018-06-29T14:53:46.233Z,7.30
2018-06-29T14:58:40.767Z,7.25
2018-06-29T15:03:35.277Z,7.78
2018-06-29T15:08:29.784Z,8.23
2018-06-29T15:13:24.510Z,8.40
2018-06-29T15:18:18.977Z,8.88
2018-06-29T15:23:13.613Z,8.78
2018-06-29T15:28:08.500Z,8.45
2018-06-29T15:33:04.862Z,8.80
2018-06-29T15:37:59.884Z,9.10
2018-06-29T15:42:54.921Z,8.28
2018-06-29T15:47:49.448Z,7.90
2018-06-29T15:52:44.068Z,7.58
2018-06-29T15:57:39.130Z,8.45
2018-06-29T16:02:33.990Z,8.28
2018-06-29T16:07:28.871Z,7.92
2018-06-29T16:12:23.548Z,8.55
2018-06-29T16:17:18.380Z,8.43
2018-06-29T16:22:14.426Z,9.18
2018-06-29T16:27:09.060Z,7.83
2018-06-29T16:32:03.634Z,8.13
2018-06-29T16:36:58.719Z,7.87
2018-06-29T16:41:53.214Z,7.05
2018-06-29T16:46:47.831Z,7.87
2018-06-29T16:51:42.894Z,7.90
2018-06-29T16:56:37.581Z,7.60
2018-06-29T17:01:32.229Z,7.72
2018-06-29T17:06:27.002Z,6.95
2018-06-29T17:11:21.857Z,7.80
2018-06-29T17:16:16.453Z,8.05
2018-06-29T17:21:11.064Z,7.87
2018-06-29T17:26:05.652Z,7.72
2018-06-29T17:31:00.474Z,7.55
2018-06-29T17:35:58.348Z,7.60
2018-06-29T17:40:53.377Z,7.05
2018-06-29T17:45:47.996Z,7.72
2018-06-29T17:50:42.719Z,7.60
2018-06-29T17:55:37.988Z,8.50
2018-06-29T18:00:32.612Z,7.70
2018-06-29T18:05:27.303Z,8.10
2018-06-29T18:10:22.073Z,8.28
2018-06-29T18:15:17.441Z,8.58
2018-06-29T18:20:12.507Z,7.97
2018-06-29T18:25:08.107Z,8.18
2018-06-29T18:30:03.101Z,7.47
2018-06-29T18:34:59.048Z,7.87
2018-06-29T18:39:54.280Z,8.25
2018-06-29T18:44:49.645Z,8.40
2018-06-29T18:49:44.784Z,8.13
2018-06-29T18:54:40.180Z,8.40
2018-06-29T18:59:34.762Z,7.87
2018-06-29T19:04:29.579Z,8.05
2018-06-29T19:09:24.477Z,8.33
2018-06-29T19:14:19.388Z,8.83
2018-06-29T19:19:14.469Z,8.73
2018-06-29T19:24:09.258Z,8.85
2018-06-29T19:29:04.256Z,9.10
2018-06-29T19:34:00.007Z,8.53
2018-06-29T19:38:55.171Z,9.23
2018-06-29T19:43:50.239Z,9.38
2018-06-29T19:48:45.733Z,9.30
2018-06-29T19:53:41.442Z,9.23
2018-06-29T19:58:36.286Z,9.77
2018-06-29T20:03:32.517Z,10.20
2018-06-29T20:08:27.332Z,10.67
2018-06-29T20:13:22.090Z,10.53
2018-06-29T20:18:17.189Z,10.67
2018-06-29T20:23:11.870Z,10.30
2018-06-29T20:28:07.508Z,11.33
2018-06-29T20:33:02.424Z,10.97
2018-06-29T20:37:57.409Z,10.50
2018-06-29T20:42:52.025Z,12.10
2018-06-29T20:47:46.709Z,12.70
2018-06-29T20:52:41.462Z,12.20
2018-06-29T20:57:36.199Z,12.70
2018-06-29T21:02:31.445Z,12.50
2018-06-29T21:07:25.999Z,11.93
2018-06-29T21:12:22.707Z,12.30
2018-06-29T21:17:20.804Z,12.90
2018-06-29T21:22:16.165Z,12.80
2018-06-29T21:27:11.441Z,12.43
2018-06-29T21:32:06.842Z,13.57
2018-06-29T21:37:02.314Z,12.97
2018-06-29T21:41:57.263Z,14.10
2018-06-29T21:46:52.525Z,12.80
2018-06-29T21:51:47.857Z,13.80
2018-06-29T21:56:43.425Z,13.43
2018-06-29T22:01:38.709Z,12.60
2018-06-29T22:06:33.552Z,13.70
2018-06-29T22:11:29.133Z,13.63
2018-06-29T22:16:24.493Z,14.50
2018-06-29T22:21:19.857Z,14.70
2018-06-29T22:26:14.636Z,15.00
2018-06-29T22:31:09.993Z,14.63
2018-06-29T22:36:05.252Z,15.03
2018-06-29T22:41:00.427Z,15.50
2018-06-29T22:45:56.212Z,14.23
2018-06-29T22:50:51.685Z,14.43
2018-06-29T22:55:46.901Z,15.47
2018-06-29T23:00:42.256Z,14.97
2018-06-29T23:05:37.599Z,15.47
2018-06-29T23:10:32.743Z,16.37
2018-06-29T23:15:27.972Z,16.10
2018-06-29T23:20:23.133Z,16.70
2018-06-29T23:25:18.484Z,17.50
2018-06-29T23:30:13.691Z,16.20
2018-06-29T23:35:08.947Z,17.27
2018-06-29T23:40:04.275Z,17.50
2018-06-29T23:44:59.714Z,16.20
2018-06-29T23:49:54.790Z,18.47
2018-06-29T23:54:50.231Z,18.37
2018-06-29T23:59:45.404Z,17.57
